createdAt,value
2019-01-21T00:00:42.743Z,9.13
2019-01-21T00:03:14.272Z,9.90
2019-01-21T00:05:37.605Z,10.07
2019-01-21T00:08:04.225Z,11.30
2019-01-21T00:10:30.404Z,9.17
2019-01-21T00:12:56.677Z,11.43
2019-01-21T00:15:22.969Z,9.27
2019-01-21T00:17:49.288Z,9.87
2019-01-21T00:20:15.812Z,9.00
2019-01-21T00:22:41.987Z,8.87
2019-01-21T00:25:08.282Z,9.13
2019-01-21T00:27:34.452Z,9.67
2019-01-21T00:30:00.619Z,10.47
2019-01-21T00:32:26.906Z,12.27
2019-01-21T00:34:53.105Z,10.53
2019-01-21T00:37:19.266Z,9.50
2019-01-21T00:39:45.455Z,12.17
2019-01-21T00:42:11.641Z,11.20
2019-01-21T00:44:37.848Z,8.67
2019-01-21T00:47:03.999Z,9.00
2019-01-21T00:49:30.531Z,9.70
2019-01-21T00:51:56.749Z,10.33
2019-01-21T00:54:23.005Z,9.77
2019-01-21T00:56:49.433Z,10.73
2019-01-21T00:59:15.890Z,9.60
2019-01-21T01:01:42.068Z,9.73
2019-01-21T01:04:08.229Z,8.70
2019-01-21T01:06:34.423Z,8.73
2019-01-21T01:09:00.602Z,9.37
2019-01-21T01:11:26.782Z,11.03
2019-01-21T01:13:53.017Z,7.97
2019-01-21T01:16:19.210Z,10.30
2019-01-21T01:18:45.467Z,7.73
2019-01-21T01:21:11.676Z,10.43
2019-01-21T01:23:37.848Z,10.47
2019-01-21T01:26:04.052Z,9.93
2019-01-21T01:28:30.232Z,10.50
2019-01-21T01:30:56.424Z,10.70
2019-01-21T01:33:22.618Z,11.53
2019-01-21T01:35:48.834Z,11.70
2019-01-21T01:38:14.988Z,9.27
2019-01-21T01:40:41.154Z,8.97
2019-01-21T01:43:07.695Z,11.67
2019-01-21T01:45:34.697Z,12.53
2019-01-21T01:48:01.275Z,8.43
2019-01-21T01:50:27.547Z,9.47
2019-01-21T01:52:53.757Z,9.43
2019-01-21T01:55:22.184Z,8.87
2019-01-21T01:57:52.562Z,8.30
2019-01-21T02:00:19.196Z,9.83
2019-01-21T02:02:45.378Z,8.10
2019-01-21T02:05:12.065Z,8.80
2019-01-21T02:07:38.368Z,9.73
2019-01-21T02:10:12.159Z,9.03
2019-01-21T02:12:38.478Z,7.97
2019-01-21T02:15:09.752Z,8.13
2019-01-21T02:17:35.993Z,7.87
2019-01-21T02:20:07.353Z,7.63
2019-01-21T02:22:35.359Z,8.40
2019-01-21T02:25:31.318Z,9.17
2019-01-21T02:28:06.045Z,7.37
2019-01-21T02:30:40.937Z,8.67
2019-01-21T02:33:34.187Z,10.20
2019-01-21T02:36:08.841Z,7.20
2019-01-21T02:38:49.761Z,8.67
2019-01-21T02:41:24.588Z,6.03
2019-01-21T02:44:10.122Z,6.93
2019-01-21T02:46:57.111Z,7.20
2019-01-21T02:49:50.477Z,6.30
2019-01-21T02:52:47.826Z,6.87
2019-01-21T02:55:47.375Z,8.93
2019-01-21T02:58:38.876Z,6.63
2019-01-21T03:01:36.436Z,6.07
2019-01-21T03:04:33.983Z,6.47
2019-01-21T03:07:22.595Z,6.50
2019-01-21T03:10:09.484Z,6.30
2019-01-21T03:12:52.691Z,7.53
2019-01-21T03:15:33.535Z,7.23
2019-01-21T03:18:40.559Z,7.97
2019-01-21T03:21:34.772Z,7.47
2019-01-21T03:24:28.167Z,8.57
2019-01-21T03:27:34.954Z,7.30
2019-01-21T03:30:24.610Z,7.47
2019-01-21T03:33:11.246Z,7.40
2019-01-21T03:36:03.854Z,7.73
2019-01-21T03:38:50.434Z,8.00
2019-01-21T03:41:26.161Z,8.03
2019-01-21T03:44:19.368Z,9.30
2019-01-21T03:47:12.686Z,8.27
2019-01-21T03:50:04.388Z,7.60
2019-01-21T03:53:20.412Z,7.73
2019-01-21T03:55:52.770Z,7.13
2019-01-21T03:58:47.444Z,8.97
2019-01-21T04:01:55.989Z,7.17
2019-01-21T04:04:47.009Z,8.77
2019-01-21T04:07:19.280Z,7.97
2019-01-21T04:10:14.594Z,9.00
2019-01-21T04:12:55.314Z,8.43
2019-01-21T04:15:44.645Z,7.37
2019-01-21T04:18:40.542Z,6.57
2019-01-21T04:21:15.354Z,8.67
2019-01-21T04:24:08.230Z,10.75
2019-01-21T04:26:58.014Z,9.15
2019-01-21T04:30:05.404Z,7.60
2019-01-21T04:33:10.733Z,8.27
2019-01-21T04:35:58.202Z,9.03
2019-01-21T04:39:11.827Z,8.47
2019-01-21T04:42:11.314Z,7.23
2019-01-21T04:45:16.650Z,7.80
2019-01-21T04:48:06.217Z,8.60
2019-01-21T04:50:38.436Z,10.20
2019-01-21T04:53:28.783Z,8.23
2019-01-21T04:56:21.174Z,8.67
2019-01-21T04:59:10.415Z,8.65
2019-01-21T05:02:00.708Z,11.10
2019-01-21T05:04:47.980Z,9.17
2019-01-21T05:07:51.988Z,9.07
2019-01-21T05:10:48.010Z,9.67
2019-01-21T05:13:37.769Z,11.73
2019-01-21T05:16:27.651Z,9.03
2019-01-21T05:19:17.386Z,12.60
2019-01-21T05:21:57.913Z,8.97
2019-01-21T05:24:32.642Z,7.90
2019-01-21T05:27:07.479Z,11.00
2019-01-21T05:29:56.169Z,9.73
2019-01-21T05:32:45.789Z,10.27
2019-01-21T05:35:34.436Z,11.70
2019-01-21T05:38:20.651Z,9.40
2019-01-21T05:41:00.864Z,12.13
2019-01-21T05:43:56.145Z,9.63
2019-01-21T05:46:36.342Z,11.67
2019-01-21T05:49:20.454Z,9.40
2019-01-21T05:52:08.036Z,11.10
2019-01-21T05:55:09.401Z,13.57
2019-01-21T05:58:07.610Z,8.83
2019-01-21T06:00:39.674Z,9.20
2019-01-21T06:03:48.796Z,9.73
2019-01-21T06:06:35.136Z,10.93
2019-01-21T06:09:15.042Z,9.13
2019-01-21T06:12:01.058Z,13.10
2019-01-21T06:14:56.917Z,9.67
2019-01-21T06:17:40.927Z,10.33
2019-01-21T06:21:01.932Z,11.67
2019-01-21T06:23:51.473Z,9.03
2019-01-21T06:26:26.642Z,10.60
2019-01-21T06:29:13.387Z,11.17
2019-01-21T06:32:11.115Z,12.23
2019-01-21T06:35:00.803Z,9.93
2019-01-21T06:37:47.266Z,11.87
2019-01-21T06:40:27.560Z,8.05
2019-01-21T06:43:05.094Z,8.78
2019-01-21T06:46:23.132Z,9.93
2019-01-21T06:49:07.604Z,7.87
2019-01-21T06:52:06.490Z,9.07
2019-01-21T06:54:55.118Z,9.97
2019-01-21T06:57:47.683Z,10.90
2019-01-21T07:00:37.397Z,10.05
2019-01-21T07:03:12.056Z,9.63
2019-01-21T07:05:55.524Z,11.12
2019-01-21T07:08:51.418Z,8.13
2019-01-21T07:11:49.557Z,10.57
2019-01-21T07:14:47.561Z,12.03
2019-01-21T07:17:34.897Z,8.65
2019-01-21T07:20:14.412Z,8.00
2019-01-21T07:22:55.013Z,7.10
2019-01-21T07:25:37.886Z,7.60
2019-01-21T07:28:18.707Z,7.27
2019-01-21T07:30:53.500Z,8.23
2019-01-21T07:34:09.862Z,9.37
2019-01-21T07:36:44.753Z,6.97
2019-01-21T07:39:37.940Z,8.00
2019-01-21T07:42:21.734Z,7.67
2019-01-21T07:45:29.079Z,8.17
2019-01-21T07:48:18.500Z,5.93
2019-01-21T07:51:17.208Z,6.47
2019-01-21T07:53:57.615Z,7.60
2019-01-21T07:57:06.936Z,8.07
2019-01-21T07:59:59.347Z,8.13
2019-01-21T08:02:37.759Z,9.37
2019-01-21T08:05:31.026Z,7.97
2019-01-21T08:08:18.655Z,8.90
2019-01-21T08:11:02.173Z,9.60
2019-01-21T08:14:05.641Z,10.47
2019-01-21T08:17:04.429Z,13.17
2019-01-21T08:19:54.217Z,11.33
2019-01-21T08:23:02.066Z,14.43
2019-01-21T08:25:51.824Z,11.80
2019-01-21T08:28:49.068Z,11.43
2019-01-21T08:31:37.806Z,11.30
2019-01-21T08:34:14.655Z,10.40
2019-01-21T08:36:58.883Z,14.83
2019-01-21T08:39:55.139Z,12.23
2019-01-21T08:42:51.301Z,13.77
2019-01-21T08:45:47.680Z,10.27
2019-01-21T08:48:23.166Z,15.00
2019-01-21T08:51:07.116Z,14.70
2019-01-21T08:54:04.731Z,13.43
2019-01-21T08:56:45.498Z,12.83
2019-01-21T08:59:29.291Z,12.90
2019-01-21T09:02:06.306Z,14.37
2019-01-21T09:04:48.568Z,15.47
2019-01-21T09:07:38.430Z,15.27
2019-01-21T09:10:44.683Z,14.13
2019-01-21T09:13:22.114Z,10.47
2019-01-21T09:15:56.798Z,13.50
2019-01-21T09:18:34.233Z,13.10
2019-01-21T09:21:25.986Z,13.67
2019-01-21T09:24:17.316Z,12.37
2019-01-21T09:27:16.115Z,13.67
2019-01-21T09:29:51.069Z,11.37
2019-01-21T09:32:45.675Z,12.93
2019-01-21T09:35:29.889Z,11.03
2019-01-21T09:38:19.220Z,14.63
2019-01-21T09:41:05.925Z,13.07
2019-01-21T09:43:37.856Z,12.73
2019-01-21T09:46:24.694Z,13.73
2019-01-21T09:48:50.741Z,15.47
2019-01-21T09:51:18.344Z,14.33
2019-01-21T09:53:49.065Z,13.33
2019-01-21T09:56:15.223Z,15.17
2019-01-21T09:58:43.056Z,14.57
2019-01-21T10:01:09.458Z,15.27
2019-01-21T10:03:35.974Z,14.60
2019-01-21T10:06:05.623Z,16.27
2019-01-21T10:08:43.794Z,15.00
2019-01-21T10:11:41.335Z,15.70
2019-01-21T10:14:22.428Z,14.50
2019-01-21T10:17:13.961Z,15.00
2019-01-21T10:20:00.695Z,16.33
2019-01-21T10:22:53.132Z,15.90
2019-01-21T10:25:39.873Z,13.07
2019-01-21T10:28:28.743Z,13.13
2019-01-21T10:31:18.586Z,14.83
2019-01-21T10:34:22.157Z,18.00
2019-01-21T10:37:21.704Z,18.90
2019-01-21T10:40:25.460Z,19.80
2019-01-21T10:43:08.801Z,16.83
2019-01-21T10:45:45.886Z,15.37
2019-01-21T10:48:30.139Z,16.03
2019-01-21T10:51:19.393Z,16.97
2019-01-21T10:54:16.557Z,15.73
2019-01-21T10:56:48.692Z,18.07
2019-01-21T10:59:47.722Z,14.73
2019-01-21T11:02:52.077Z,18.13
2019-01-21T11:05:42.640Z,16.27
2019-01-21T11:08:36.006Z,14.80
2019-01-21T11:11:14.930Z,16.93
2019-01-21T11:14:05.075Z,17.40
2019-01-21T11:16:42.955Z,18.00
2019-01-21T11:19:26.181Z,15.87
2019-01-21T11:21:58.158Z,17.67
2019-01-21T11:24:33.044Z,16.13
2019-01-21T11:27:31.972Z,16.00
2019-01-21T11:30:30.693Z,17.77
2019-01-21T11:33:22.272Z,16.93
2019-01-21T11:36:12.472Z,16.10
2019-01-21T11:38:53.370Z,16.57
2019-01-21T11:41:46.530Z,15.10
2019-01-21T11:44:27.536Z,16.90
2019-01-21T11:47:08.944Z,18.17
2019-01-21T11:50:15.385Z,15.33
2019-01-21T11:52:56.119Z,16.83
2019-01-21T11:55:43.122Z,14.47
2019-01-21T11:58:35.955Z,16.07
2019-01-21T12:01:32.125Z,16.27
2019-01-21T12:04:18.860Z,15.97
2019-01-21T12:07:00.102Z,15.83
2019-01-21T12:09:50.533Z,13.57
2019-01-21T12:12:22.693Z,14.63
2019-01-21T12:15:00.639Z,15.40
2019-01-21T12:18:02.021Z,15.93
2019-01-21T12:20:42.692Z,15.40
2019-01-21T12:23:32.184Z,16.90
2019-01-21T12:26:22.187Z,17.40
2019-01-21T12:28:59.509Z,16.60
2019-01-21T12:31:43.521Z,16.73
2019-01-21T12:34:41.676Z,14.17
2019-01-21T12:37:16.398Z,17.73
2019-01-21T12:39:54.449Z,16.23
2019-01-21T12:42:26.351Z,14.33
2019-01-21T12:45:17.668Z,15.67
2019-01-21T12:47:52.844Z,14.67
2019-01-21T12:51:01.647Z,13.67
2019-01-21T12:53:57.481Z,14.87
2019-01-21T12:56:44.217Z,16.40
2019-01-21T12:59:42.774Z,16.27
2019-01-21T13:02:20.573Z,16.23
2019-01-21T13:04:52.526Z,15.20
2019-01-21T13:07:30.239Z,14.93
2019-01-21T13:10:04.804Z,18.40
2019-01-21T13:13:09.966Z,16.37
2019-01-21T13:15:48.109Z,16.10
2019-01-21T13:18:49.213Z,15.60
2019-01-21T13:21:24.029Z,14.30
2019-01-21T13:24:01.766Z,16.63
2019-01-21T13:26:51.059Z,16.33
2019-01-21T13:29:25.974Z,15.17
2019-01-21T13:32:30.709Z,15.50
2019-01-21T13:35:05.312Z,18.30
2019-01-21T13:37:46.413Z,15.97
2019-01-21T13:40:33.380Z,17.77
2019-01-21T13:43:32.025Z,16.13
2019-01-21T13:46:29.606Z,16.77
2019-01-21T13:49:16.620Z,17.23
2019-01-21T13:51:51.574Z,18.13
2019-01-21T13:55:01.155Z,16.07
2019-01-21T13:57:48.102Z,15.77
2019-01-21T14:00:43.442Z,18.50
2019-01-21T14:03:18.391Z,17.17
2019-01-21T14:06:10.465Z,16.73
2019-01-21T14:09:12.766Z,17.63
2019-01-21T14:11:59.677Z,16.23
2019-01-21T14:14:37.065Z,19.57
2019-01-21T14:17:18.073Z,17.93
2019-01-21T14:19:56.109Z,24.57
2019-01-21T14:22:40.636Z,21.57
2019-01-21T14:25:21.104Z,21.30
2019-01-21T14:27:58.977Z,21.70
2019-01-21T14:31:12.450Z,21.37
2019-01-21T14:34:05.289Z,21.60
2019-01-21T14:37:04.663Z,18.73
2019-01-21T14:39:48.435Z,22.47
2019-01-21T14:42:57.124Z,19.73
2019-01-21T14:45:42.921Z,17.20
2019-01-21T14:48:40.779Z,23.23
2019-01-21T14:51:36.415Z,19.20
2019-01-21T14:54:20.599Z,20.47
2019-01-21T14:57:25.161Z,17.87
2019-01-21T15:00:11.818Z,19.97
2019-01-21T15:03:00.368Z,18.93
2019-01-21T15:06:00.967Z,22.07
2019-01-21T15:08:35.416Z,19.17
2019-01-21T15:11:31.411Z,17.93
2019-01-21T15:14:12.350Z,19.57
2019-01-21T15:16:56.431Z,18.43
2019-01-21T15:19:28.258Z,17.43
2019-01-21T15:22:12.188Z,18.03
2019-01-21T15:25:01.912Z,17.87
2019-01-21T15:27:52.481Z,20.80
2019-01-21T15:30:29.418Z,17.97
2019-01-21T15:33:12.739Z,19.40
2019-01-21T15:36:14.252Z,17.17
2019-01-21T15:39:00.711Z,18.43
2019-01-21T15:41:38.301Z,20.60
2019-01-21T15:44:12.940Z,19.00
2019-01-21T15:47:08.502Z,18.60
2019-01-21T15:50:01.041Z,16.80
2019-01-21T15:52:38.817Z,21.40
2019-01-21T15:55:21.782Z,19.17
2019-01-21T15:57:56.667Z,20.03
2019-01-21T16:00:51.007Z,19.70
2019-01-21T16:03:31.203Z,19.13
2019-01-21T16:06:39.018Z,18.10
2019-01-21T16:09:45.547Z,18.60
2019-01-21T16:12:35.326Z,20.37
2019-01-21T16:15:30.070Z,19.97
2019-01-21T16:18:24.572Z,18.90
2019-01-21T16:21:19.254Z,18.33
2019-01-21T16:24:28.930Z,15.97
2019-01-21T16:27:22.984Z,18.33
2019-01-21T16:30:18.092Z,18.50
2019-01-21T16:32:50.024Z,19.33
2019-01-21T16:35:32.935Z,23.67
2019-01-21T16:38:07.787Z,21.13
2019-01-21T16:41:11.400Z,19.90
2019-01-21T16:43:37.731Z,20.30
2019-01-21T16:46:04.240Z,20.10
2019-01-21T16:48:30.748Z,22.70
2019-01-21T16:50:57.282Z,21.60
2019-01-21T16:53:23.495Z,20.10
2019-01-21T16:55:49.694Z,19.93
2019-01-21T16:58:15.935Z,19.83
2019-01-21T17:00:42.518Z,18.93
2019-01-21T17:03:08.700Z,22.97
2019-01-21T17:05:34.889Z,19.67
2019-01-21T17:08:01.576Z,21.57
2019-01-21T17:10:27.909Z,19.00
2019-01-21T17:12:56.969Z,21.93
2019-01-21T17:15:23.180Z,21.40
2019-01-21T17:17:49.503Z,20.73
2019-01-21T17:20:19.919Z,18.87
2019-01-21T17:22:46.504Z,21.03
2019-01-21T17:25:12.993Z,18.10
2019-01-21T17:27:39.412Z,18.77
2019-01-21T17:30:11.037Z,20.37
2019-01-21T17:32:37.251Z,20.80
2019-01-21T17:35:07.208Z,23.33
2019-01-21T17:37:33.410Z,23.77
2019-01-21T17:39:59.609Z,18.57
2019-01-21T17:42:27.446Z,19.87
2019-01-21T17:44:53.637Z,18.33
2019-01-21T17:47:19.996Z,21.23
2019-01-21T17:49:46.695Z,23.90
2019-01-21T17:52:13.314Z,23.47
2019-01-21T17:54:39.890Z,23.23
2019-01-21T17:57:06.486Z,25.87
2019-01-21T17:59:32.726Z,23.83
2019-01-21T18:01:58.925Z,26.10
2019-01-21T18:04:25.686Z,22.47
2019-01-21T18:06:51.876Z,24.70
2019-01-21T18:09:18.049Z,26.37
2019-01-21T18:11:44.274Z,22.77
2019-01-21T18:14:10.584Z,21.97
2019-01-21T18:16:37.077Z,20.50
2019-01-21T18:19:08.382Z,19.53
2019-01-21T18:21:40.087Z,21.00
2019-01-21T18:24:03.266Z,21.17
2019-01-21T18:26:31.132Z,20.27
2019-01-21T18:28:57.461Z,22.10
2019-01-21T18:31:24.130Z,19.27
2019-01-21T18:33:50.864Z,19.20
2019-01-21T18:36:17.020Z,17.73
2019-01-21T18:38:44.270Z,18.70
2019-01-21T18:41:10.533Z,18.63
2019-01-21T18:43:37.209Z,20.43
2019-01-21T18:46:06.239Z,19.53
2019-01-21T18:48:33.707Z,23.40
2019-01-21T18:51:06.091Z,16.73
2019-01-21T18:53:34.525Z,22.47
2019-01-21T18:56:09.303Z,20.47
2019-01-21T18:58:38.246Z,21.40
2019-01-21T19:01:04.424Z,22.27
2019-01-21T19:03:31.809Z,19.57
2019-01-21T19:05:58.541Z,21.83
2019-01-21T19:08:24.910Z,22.93
2019-01-21T19:10:55.073Z,20.57
2019-01-21T19:13:24.337Z,23.90
2019-01-21T19:15:50.756Z,19.47
2019-01-21T19:18:20.019Z,19.30
2019-01-21T19:20:51.661Z,20.13
2019-01-21T19:23:18.329Z,20.67
2019-01-21T19:25:44.653Z,17.33
2019-01-21T19:28:10.948Z,18.37
2019-01-21T19:30:37.521Z,19.93
2019-01-21T19:33:03.884Z,18.20
2019-01-21T19:35:33.582Z,19.00
2019-01-21T19:37:59.985Z,17.37
2019-01-21T19:40:26.635Z,17.77
2019-01-21T19:42:52.871Z,14.10
2019-01-21T19:45:19.391Z,19.07
2019-01-21T19:47:50.115Z,17.83
2019-01-21T19:50:23.995Z,18.67
2019-01-21T19:52:53.848Z,17.73
2019-01-21T19:55:36.400Z,15.03
2019-01-21T19:58:06.471Z,18.00
2019-01-21T20:00:33.201Z,16.63
2019-01-21T20:03:02.108Z,17.47
2019-01-21T20:05:29.102Z,20.07
2019-01-21T20:07:58.010Z,16.17
2019-01-21T20:10:29.114Z,18.20
2019-01-21T20:12:55.438Z,15.87
2019-01-21T20:15:21.784Z,13.07
2019-01-21T20:17:52.810Z,13.67
2019-01-21T20:20:32.069Z,10.93
2019-01-21T20:22:58.311Z,12.40
2019-01-21T20:25:28.046Z,12.90
2019-01-21T20:27:55.652Z,12.83
2019-01-21T20:30:23.724Z,12.73
2019-01-21T20:32:49.953Z,10.73
2019-01-21T20:35:17.359Z,12.83
2019-01-21T20:37:43.772Z,14.70
2019-01-21T20:40:23.737Z,13.83
2019-01-21T20:42:50.038Z,12.40
2019-01-21T20:45:18.685Z,13.67
2019-01-21T20:47:45.379Z,13.27
2019-01-21T20:50:21.898Z,13.37
2019-01-21T20:52:49.852Z,11.57
2019-01-21T20:55:17.200Z,12.70
2019-01-21T20:57:43.561Z,12.97
2019-01-21T21:00:17.199Z,14.03
2019-01-21T21:02:43.418Z,13.57
2019-01-21T21:05:09.979Z,10.93
2019-01-21T21:07:36.167Z,14.23
2019-01-21T21:10:07.016Z,12.93
2019-01-21T21:12:33.600Z,10.53
2019-01-21T21:14:59.790Z,12.57
2019-01-21T21:17:26.097Z,11.93
2019-01-21T21:19:52.248Z,12.30
2019-01-21T21:22:21.081Z,10.67
2019-01-21T21:24:46.516Z,12.47
2019-01-21T21:27:12.791Z,12.20
2019-01-21T21:29:39.283Z,13.40
2019-01-21T21:32:05.493Z,11.33
2019-01-21T21:34:31.723Z,11.63
2019-01-21T21:36:58.035Z,12.40
2019-01-21T21:39:24.293Z,16.87
2019-01-21T21:41:50.511Z,16.63
2019-01-21T21:44:16.712Z,14.00
2019-01-21T21:46:43.820Z,14.53
2019-01-21T21:49:10.068Z,14.93
2019-01-21T21:51:36.306Z,14.17
2019-01-21T21:54:02.868Z,13.87
2019-01-21T21:56:30.090Z,13.77
2019-01-21T21:58:56.249Z,16.63
2019-01-21T22:01:23.970Z,16.13
2019-01-21T22:03:50.404Z,15.07
2019-01-21T22:06:16.623Z,14.13
2019-01-21T22:08:42.803Z,14.50
2019-01-21T22:11:09.018Z,13.93
2019-01-21T22:13:35.298Z,14.77
2019-01-21T22:16:01.552Z,14.83
2019-01-21T22:18:28.185Z,16.47
2019-01-21T22:20:54.384Z,15.63
2019-01-21T22:23:20.604Z,14.37
2019-01-21T22:25:46.766Z,14.13
2019-01-21T22:28:13.016Z,15.57
2019-01-21T22:30:39.622Z,13.37
2019-01-21T22:33:05.900Z,12.87
2019-01-21T22:35:32.069Z,12.20
2019-01-21T22:37:58.378Z,12.73
2019-01-21T22:40:24.643Z,11.03
2019-01-21T22:42:51.050Z,11.40
2019-01-21T22:45:18.505Z,15.70
2019-01-21T22:47:44.874Z,13.37
2019-01-21T22:50:14.031Z,11.27
2019-01-21T22:52:41.989Z,13.63
2019-01-21T22:55:10.883Z,12.07
2019-01-21T22:57:37.103Z,10.33
2019-01-21T23:00:20.481Z,11.83
2019-01-21T23:02:46.703Z,14.03
2019-01-21T23:05:12.982Z,12.13
2019-01-21T23:07:39.217Z,12.00
2019-01-21T23:10:06.990Z,10.40
2019-01-21T23:12:33.179Z,13.87
2019-01-21T23:14:59.350Z,11.63
2019-01-21T23:17:25.781Z,13.00
2019-01-21T23:19:51.937Z,10.33
2019-01-21T23:22:18.115Z,11.00
2019-01-21T23:24:44.311Z,9.90
2019-01-21T23:27:10.643Z,10.87
2019-01-21T23:29:36.792Z,13.60
2019-01-21T23:32:03.148Z,10.27
2019-01-21T23:34:29.463Z,11.30
2019-01-21T23:36:55.677Z,10.40
2019-01-21T23:39:21.921Z,11.67
2019-01-21T23:41:48.128Z,11.20
2019-01-21T23:44:14.528Z,12.17
2019-01-21T23:46:40.707Z,11.17
2019-01-21T23:49:07.027Z,11.83
2019-01-21T23:51:33.185Z,12.33
2019-01-21T23:53:59.392Z,13.20
2019-01-21T23:56:25.551Z,11.90
2019-01-21T23:58:51.786Z,10.87
